createdAt,value
2022-10-23T00:00:41.665Z,11.60
2022-10-23T00:03:10.836Z,11.61
2022-10-23T00:05:41.377Z,11.51
2022-10-23T00:08:09.615Z,11.39
2022-10-23T00:10:41.289Z,11.37
2022-10-23T00:13:09.560Z,11.35
2022-10-23T00:15:37.897Z,11.28
2022-10-23T00:18:05.914Z,11.23
2022-10-23T00:20:35.045Z,11.23
2022-10-23T00:23:02.804Z,11.28
2022-10-23T00:25:30.581Z,11.36
2022-10-23T00:27:58.293Z,11.41
2022-10-23T00:30:26.066Z,11.41
2022-10-23T00:32:53.789Z,11.43
2022-10-23T00:35:21.569Z,11.45
2022-10-23T00:37:50.788Z,11.42
2022-10-23T00:40:19.020Z,11.40
2022-10-23T00:42:46.737Z,11.42
2022-10-23T00:45:22.819Z,11.40
2022-10-23T00:47:51.080Z,11.40
2022-10-23T00:50:19.690Z,11.40
2022-10-23T00:52:52.223Z,11.45
2022-10-23T00:55:22.785Z,11.40
2022-10-23T00:57:52.294Z,11.36
2022-10-23T01:00:24.147Z,11.32
2022-10-23T01:02:52.709Z,11.36
2022-10-23T01:05:26.209Z,11.37
2022-10-23T01:08:03.024Z,11.34
2022-10-23T01:10:36.550Z,11.30
2022-10-23T01:13:09.510Z,11.27
2022-10-23T01:15:44.556Z,11.35
2022-10-23T01:18:18.161Z,11.39
2022-10-23T01:20:54.316Z,11.43
2022-10-23T01:23:51.802Z,11.39
2022-10-23T01:26:32.270Z,11.40
2022-10-23T01:29:05.874Z,11.40
2022-10-23T01:31:37.980Z,11.38
2022-10-23T01:34:13.079Z,11.38
2022-10-23T01:36:47.236Z,11.35
2022-10-23T01:39:19.654Z,11.35
2022-10-23T01:41:51.433Z,11.40
2022-10-23T01:44:31.208Z,11.44
2022-10-23T01:47:00.332Z,11.43
2022-10-23T01:49:32.289Z,11.41
2022-10-23T01:52:04.034Z,11.41
2022-10-23T01:54:34.868Z,11.42
2022-10-23T01:57:04.304Z,11.40
2022-10-23T01:59:38.273Z,11.40
2022-10-23T02:02:09.977Z,11.39
2022-10-23T02:04:41.917Z,11.41
2022-10-23T02:07:09.957Z,11.43
2022-10-23T02:09:37.875Z,11.46
2022-10-23T02:12:09.451Z,11.49
2022-10-23T02:14:51.542Z,11.46
2022-10-23T02:17:27.390Z,11.43
2022-10-23T02:20:01.389Z,11.44
2022-10-23T02:22:32.445Z,11.41
2022-10-23T02:25:06.216Z,11.40
2022-10-23T02:27:38.214Z,11.39
2022-10-23T02:30:13.151Z,11.37
2022-10-23T02:32:45.565Z,11.39
2022-10-23T02:35:14.649Z,11.40
2022-10-23T02:37:42.911Z,11.41
2022-10-23T02:40:12.781Z,11.40
2022-10-23T02:42:55.059Z,11.34
2022-10-23T02:45:32.293Z,11.23
2022-10-23T02:48:05.125Z,11.13
2022-10-23T02:50:41.013Z,11.19
2022-10-23T02:53:18.800Z,11.20
2022-10-23T02:55:54.550Z,11.19
2022-10-23T02:58:29.826Z,11.26
2022-10-23T03:01:04.421Z,11.29
2022-10-23T03:03:36.884Z,11.34
2022-10-23T03:06:06.854Z,11.30
2022-10-23T03:08:43.301Z,11.27
2022-10-23T03:11:11.141Z,11.26
2022-10-23T03:13:38.937Z,11.27
2022-10-23T03:16:08.307Z,11.27
2022-10-23T03:18:36.134Z,11.26
2022-10-23T03:21:04.656Z,11.27
2022-10-23T03:23:34.622Z,11.31
2022-10-23T03:26:02.890Z,11.35
2022-10-23T03:28:37.134Z,11.33
2022-10-23T03:31:05.241Z,11.35
2022-10-23T03:33:34.691Z,11.38
2022-10-23T03:36:11.283Z,11.37
2022-10-23T03:38:39.085Z,11.38
2022-10-23T03:41:07.208Z,11.39
2022-10-23T03:43:34.947Z,11.40
2022-10-23T03:46:03.259Z,11.39
2022-10-23T03:48:32.594Z,11.40
2022-10-23T03:51:01.641Z,11.40
2022-10-23T03:53:29.381Z,11.44
2022-10-23T03:55:57.192Z,11.40
2022-10-23T03:58:24.950Z,11.38
2022-10-23T04:00:52.685Z,11.41
2022-10-23T04:03:20.515Z,11.44
2022-10-23T04:05:49.987Z,11.47
2022-10-23T04:08:20.232Z,11.48
2022-10-23T04:10:50.790Z,11.50
2022-10-23T04:13:21.860Z,11.50
2022-10-23T04:15:50.316Z,11.52
2022-10-23T04:18:18.474Z,11.53
2022-10-23T04:20:49.096Z,11.53
2022-10-23T04:23:17.312Z,11.52
2022-10-23T04:28:24.595Z,11.56
2022-10-23T04:30:52.822Z,11.57
2022-10-23T04:33:22.121Z,11.56
2022-10-23T04:35:51.893Z,11.54
2022-10-23T04:38:19.722Z,11.51
2022-10-23T04:40:48.904Z,11.45
2022-10-23T04:43:21.193Z,11.44
2022-10-23T04:45:49.771Z,11.35
2022-10-23T04:48:17.932Z,11.32
2022-10-23T04:51:07.170Z,11.33
2022-10-23T04:53:53.595Z,11.36
2022-10-23T04:56:41.154Z,11.38
2022-10-23T04:59:13.424Z,11.43
2022-10-23T05:01:42.116Z,11.44
2022-10-23T05:04:10.629Z,11.47
2022-10-23T05:07:04.304Z,11.49
2022-10-23T05:09:54.972Z,11.50
2022-10-23T05:12:41.430Z,11.52
2022-10-23T05:15:09.731Z,11.52
2022-10-23T05:17:42.813Z,11.50
2022-10-23T05:20:16.237Z,11.47
2022-10-23T05:22:45.653Z,11.50
2022-10-23T05:25:14.166Z,11.52
2022-10-23T05:27:49.461Z,11.57
2022-10-23T05:30:18.089Z,11.61
2022-10-23T05:32:46.321Z,11.60
2022-10-23T05:35:19.135Z,11.64
2022-10-23T05:37:51.876Z,11.68
2022-10-23T05:40:23.888Z,11.69
2022-10-23T05:42:57.828Z,11.64
2022-10-23T05:45:44.194Z,11.59
2022-10-23T05:48:41.064Z,11.49
2022-10-23T05:51:23.877Z,11.51
2022-10-23T05:53:56.985Z,11.53
2022-10-23T05:56:35.978Z,11.59
2022-10-23T05:59:11.489Z,11.60
2022-10-23T06:01:51.282Z,11.59
2022-10-23T06:04:35.432Z,11.65
2022-10-23T06:07:24.725Z,11.69
2022-10-23T06:09:54.320Z,11.73
2022-10-23T06:12:22.627Z,11.78
2022-10-23T06:14:53.195Z,11.80
2022-10-23T06:17:22.753Z,11.84
2022-10-23T06:19:50.488Z,11.87
2022-10-23T06:24:59.826Z,11.93
2022-10-23T06:27:28.488Z,11.96
2022-10-23T06:29:57.970Z,11.96
2022-10-23T06:32:25.869Z,11.97
2022-10-23T06:35:10.192Z,11.98
2022-10-23T06:37:38.316Z,11.98
2022-10-23T06:40:10.762Z,12.01
2022-10-23T06:42:51.894Z,12.03
2022-10-23T06:45:36.779Z,12.03
2022-10-23T06:48:24.748Z,12.04
2022-10-23T06:51:06.681Z,12.08
2022-10-23T06:53:40.994Z,12.14
2022-10-23T06:56:30.314Z,12.18
2022-10-23T06:59:00.167Z,12.23
2022-10-23T07:01:29.654Z,12.28
2022-10-23T07:03:57.610Z,12.33
2022-10-23T07:06:27.450Z,12.35
2022-10-23T07:08:55.400Z,12.41
2022-10-23T07:11:41.566Z,12.45
2022-10-23T07:14:09.333Z,12.47
2022-10-23T07:16:38.745Z,12.53
2022-10-23T07:19:06.936Z,12.54
2022-10-23T07:21:57.917Z,12.58
2022-10-23T07:24:43.808Z,12.59
2022-10-23T07:27:21.565Z,12.62
2022-10-23T07:29:55.968Z,12.61
2022-10-23T07:32:28.105Z,12.68
2022-10-23T07:38:04.779Z,12.91
2022-10-23T07:40:35.787Z,13.00
2022-10-23T07:43:04.651Z,13.07
2022-10-23T07:45:32.349Z,13.16
2022-10-23T07:48:07.508Z,13.21
2022-10-23T07:50:55.520Z,13.24
2022-10-23T07:53:26.418Z,13.33
2022-10-23T07:55:58.421Z,13.41
2022-10-23T07:58:31.170Z,13.42
2022-10-23T08:01:18.330Z,13.43
2022-10-23T08:03:49.478Z,13.47
2022-10-23T08:06:17.564Z,13.55
2022-10-23T08:11:24.874Z,13.68
2022-10-23T08:13:53.009Z,13.75
2022-10-23T08:16:22.229Z,13.82
2022-10-23T08:19:08.068Z,13.87
2022-10-23T08:21:38.228Z,13.88
2022-10-23T08:24:06.695Z,13.90
2022-10-23T08:26:34.609Z,13.97
2022-10-23T08:29:02.342Z,14.02
2022-10-23T08:31:30.675Z,14.06
2022-10-23T08:34:20.823Z,14.10
2022-10-23T08:36:50.938Z,14.15
2022-10-23T08:39:19.168Z,14.24
2022-10-23T08:42:02.844Z,14.27
2022-10-23T08:44:34.806Z,14.33
2022-10-23T08:47:06.409Z,14.37
2022-10-23T08:49:51.071Z,14.46
2022-10-23T08:52:25.457Z,14.56
2022-10-23T08:55:05.595Z,14.62
2022-10-23T08:57:41.283Z,14.65
2022-10-23T09:00:15.281Z,14.65
2022-10-23T09:02:45.091Z,14.70
2022-10-23T09:05:18.863Z,14.81
2022-10-23T09:08:02.519Z,14.94
2022-10-23T09:10:38.834Z,15.02
2022-10-23T09:13:41.304Z,15.16
2022-10-23T09:16:21.210Z,15.18
2022-10-23T09:18:50.703Z,15.21
2022-10-23T09:21:20.853Z,15.17
2022-10-23T09:23:48.664Z,15.16
2022-10-23T09:26:18.989Z,15.20
2022-10-23T09:28:49.852Z,15.20
2022-10-23T09:31:18.493Z,15.14
2022-10-23T09:33:55.971Z,15.16
2022-10-23T09:36:29.042Z,15.19
2022-10-23T09:38:58.827Z,15.22
2022-10-23T09:41:29.952Z,15.18
2022-10-23T09:44:01.451Z,15.19
2022-10-23T09:46:38.714Z,15.17
2022-10-23T09:49:07.443Z,15.15
2022-10-23T09:51:36.648Z,15.13
2022-10-23T09:54:04.701Z,15.10
2022-10-23T09:56:34.717Z,15.12
2022-10-23T09:59:05.438Z,15.17
2022-10-23T10:01:36.159Z,15.27
2022-10-23T10:04:38.163Z,15.32
2022-10-23T10:07:18.702Z,15.23
2022-10-23T10:09:46.760Z,15.29
2022-10-23T10:12:32.353Z,15.32
2022-10-23T10:15:07.348Z,15.40
2022-10-23T10:17:41.005Z,15.45
2022-10-23T10:20:25.352Z,15.47
2022-10-23T10:23:00.349Z,15.52
2022-10-23T10:25:33.976Z,15.57
2022-10-23T10:28:18.142Z,15.65
2022-10-23T10:31:01.355Z,15.69
2022-10-23T10:33:37.754Z,15.73
2022-10-23T10:36:14.347Z,15.80
2022-10-23T10:38:51.213Z,15.82
2022-10-23T10:41:30.008Z,15.87
2022-10-23T10:44:14.322Z,15.92
2022-10-23T10:46:52.475Z,15.99
2022-10-23T10:49:28.046Z,16.00
2022-10-23T10:52:23.344Z,16.07
2022-10-23T10:55:03.629Z,16.11
2022-10-23T10:57:34.935Z,16.16
2022-10-23T11:00:07.189Z,16.22
2022-10-23T11:02:41.723Z,16.25
2022-10-23T11:05:20.849Z,16.34
2022-10-23T11:07:56.416Z,16.41
2022-10-23T11:10:25.705Z,16.46
2022-10-23T11:12:53.544Z,16.55
2022-10-23T11:15:25.342Z,16.56
2022-10-23T11:17:57.658Z,16.51
2022-10-23T11:20:38.897Z,16.55
2022-10-23T11:23:24.457Z,16.60
2022-10-23T11:26:06.182Z,16.63
2022-10-23T11:28:53.002Z,16.73
2022-10-23T11:31:30.558Z,16.91
2022-10-23T11:34:18.986Z,16.96
2022-10-23T11:36:51.309Z,17.05
2022-10-23T11:39:22.799Z,17.12
2022-10-23T11:41:55.226Z,17.27
2022-10-23T11:44:42.669Z,17.47
2022-10-23T11:47:29.833Z,17.63
2022-10-23T11:50:25.834Z,17.83
2022-10-23T11:53:12.806Z,17.85
2022-10-23T11:55:42.056Z,18.05
2022-10-23T11:58:23.834Z,18.04
2022-10-23T12:00:56.678Z,18.11
2022-10-23T12:03:30.425Z,18.27
2022-10-23T12:06:03.157Z,18.18
2022-10-23T12:08:34.024Z,18.27
2022-10-23T12:11:01.909Z,18.22
2022-10-23T12:13:44.228Z,18.11
2022-10-23T12:16:12.450Z,18.16
2022-10-23T12:18:48.272Z,18.27
2022-10-23T12:21:19.677Z,18.38
2022-10-23T12:24:24.224Z,18.37
2022-10-23T12:27:07.328Z,18.37
2022-10-23T12:29:52.193Z,18.24
2022-10-23T12:32:45.131Z,18.20
2022-10-23T12:35:54.426Z,18.33
2022-10-23T12:38:26.233Z,18.39
2022-10-23T12:40:57.573Z,18.51
2022-10-23T12:43:28.589Z,18.35
2022-10-23T12:46:17.810Z,18.39
2022-10-23T12:48:49.664Z,18.51
2022-10-23T12:51:23.776Z,18.57
2022-10-23T12:53:52.006Z,18.50
2022-10-23T12:56:20.368Z,18.50
2022-10-23T12:58:52.289Z,18.47
2022-10-23T13:01:28.097Z,18.54
2022-10-23T13:04:03.483Z,18.58
2022-10-23T13:06:31.295Z,18.53
2022-10-23T13:08:59.624Z,18.46
2022-10-23T13:11:38.575Z,18.49
2022-10-23T13:14:12.608Z,18.53
2022-10-23T13:16:41.730Z,18.49
2022-10-23T13:19:23.764Z,18.39
2022-10-23T13:21:51.588Z,18.25
2022-10-23T13:24:22.428Z,18.25
2022-10-23T13:26:56.544Z,18.35
2022-10-23T13:32:37.329Z,18.53
2022-10-23T13:35:21.736Z,18.52
2022-10-23T13:37:50.917Z,18.56
2022-10-23T13:40:24.899Z,18.62
2022-10-23T13:42:54.396Z,18.73
2022-10-23T13:45:25.507Z,18.83
2022-10-23T13:47:54.645Z,18.74
2022-10-23T13:50:22.414Z,18.78
2022-10-23T13:52:50.190Z,18.83
2022-10-23T13:55:22.532Z,18.93
2022-10-23T13:57:50.317Z,18.93
2022-10-23T14:00:18.809Z,19.02
2022-10-23T14:02:46.683Z,19.09
2022-10-23T14:05:15.819Z,19.02
2022-10-23T14:07:43.841Z,18.88
2022-10-23T14:10:11.697Z,18.77
2022-10-23T14:12:41.211Z,18.84
2022-10-23T14:15:11.149Z,18.76
2022-10-23T14:17:39.223Z,18.58
2022-10-23T14:20:08.319Z,18.55
2022-10-23T14:22:37.469Z,18.61
2022-10-23T14:25:05.922Z,18.62
2022-10-23T14:27:33.649Z,18.56
2022-10-23T14:30:01.449Z,18.69
2022-10-23T14:32:29.182Z,18.98
2022-10-23T14:34:56.966Z,19.13
2022-10-23T14:37:24.681Z,19.08
2022-10-23T14:39:53.788Z,19.10
2022-10-23T14:42:21.679Z,18.92
2022-10-23T14:44:50.419Z,18.76
2022-10-23T14:47:19.133Z,18.72
2022-10-23T14:49:50.354Z,18.65
2022-10-23T14:52:18.281Z,18.63
2022-10-23T14:54:46.016Z,18.49
2022-10-23T14:57:16.716Z,18.41
2022-10-23T14:59:44.817Z,18.34
2022-10-23T15:02:12.686Z,18.24
2022-10-23T15:04:40.775Z,18.18
2022-10-23T15:07:08.969Z,18.19
2022-10-23T15:09:37.340Z,18.18
2022-10-23T15:13:15.746Z,18.17
2022-10-23T15:15:46.480Z,18.16
2022-10-23T15:19:04.928Z,18.06
2022-10-23T15:21:33.489Z,17.91
2022-10-23T15:24:02.179Z,17.80
2022-10-23T15:26:30.024Z,17.79
2022-10-23T15:29:00.223Z,17.75
2022-10-23T15:31:55.969Z,17.70
2022-10-23T15:34:32.974Z,17.68
2022-10-23T15:37:01.314Z,17.65
2022-10-23T15:39:50.035Z,17.60
2022-10-23T15:42:19.047Z,17.54
2022-10-23T15:44:46.809Z,17.43
2022-10-23T15:47:16.138Z,17.43
2022-10-23T15:49:43.848Z,17.37
2022-10-23T15:52:11.806Z,17.33
2022-10-23T15:54:39.600Z,17.35
2022-10-23T15:57:07.346Z,17.32
2022-10-23T15:59:35.248Z,17.34
2022-10-23T16:02:03.135Z,17.35
2022-10-23T16:04:33.190Z,17.38
2022-10-23T16:07:00.882Z,17.36
2022-10-23T16:09:28.719Z,17.34
2022-10-23T16:11:56.461Z,17.30
2022-10-23T16:14:24.212Z,17.31
2022-10-23T16:16:52.140Z,17.30
2022-10-23T16:19:19.931Z,17.27
2022-10-23T16:21:49.042Z,17.24
2022-10-23T16:24:16.806Z,17.18
2022-10-23T16:26:50.266Z,17.11
2022-10-23T16:29:18.069Z,17.07
2022-10-23T16:31:46.161Z,17.11
2022-10-23T16:34:14.012Z,17.09
2022-10-23T16:36:42.249Z,17.08
2022-10-23T16:39:19.310Z,17.07
2022-10-23T16:42:06.083Z,17.07
2022-10-23T16:44:52.631Z,17.04
2022-10-23T16:47:20.513Z,17.02
2022-10-23T16:49:48.257Z,17.04
2022-10-23T16:52:15.971Z,17.01
2022-10-23T16:54:45.292Z,16.94
2022-10-23T16:57:13.082Z,16.96
2022-10-23T16:59:40.802Z,16.88
2022-10-23T17:02:10.380Z,16.83
2022-10-23T17:04:38.609Z,16.82
2022-10-23T17:07:07.103Z,16.82
2022-10-23T17:09:35.766Z,16.78
2022-10-23T17:12:05.248Z,16.79
2022-10-23T17:14:33.237Z,16.79
2022-10-23T17:17:02.390Z,16.78
2022-10-23T17:19:46.968Z,16.81
2022-10-23T17:22:15.438Z,16.81
2022-10-23T17:24:46.284Z,16.79
2022-10-23T17:27:18.093Z,16.74
2022-10-23T17:29:45.815Z,16.74
2022-10-23T17:32:13.807Z,16.70
2022-10-23T17:34:41.636Z,16.68
2022-10-23T17:37:10.175Z,16.69
2022-10-23T17:39:37.918Z,16.71
2022-10-23T17:42:05.686Z,16.72
2022-10-23T17:44:34.753Z,16.71
2022-10-23T17:47:02.527Z,16.78
2022-10-23T17:49:30.306Z,16.87
2022-10-23T17:51:58.888Z,16.84
2022-10-23T17:54:27.981Z,16.86
2022-10-23T17:56:55.965Z,16.88
2022-10-23T17:59:23.781Z,16.85
2022-10-23T18:01:53.375Z,16.84
2022-10-23T18:04:22.122Z,16.86
2022-10-23T18:06:52.730Z,16.92
2022-10-23T18:09:21.602Z,16.98
2022-10-23T18:11:49.561Z,16.99
2022-10-23T18:14:17.610Z,16.99
2022-10-23T18:16:46.482Z,17.02
2022-10-23T18:19:18.023Z,17.02
2022-10-23T18:21:45.846Z,17.03
2022-10-23T18:24:14.027Z,17.05
2022-10-23T18:26:42.980Z,17.03
2022-10-23T18:29:12.525Z,17.04
2022-10-23T18:31:40.520Z,17.08
2022-10-23T18:34:12.919Z,17.12
2022-10-23T18:36:42.245Z,17.06
2022-10-23T18:39:14.824Z,17.07
2022-10-23T18:41:44.726Z,17.11
2022-10-23T18:44:16.744Z,17.13
2022-10-23T18:46:44.681Z,17.10
2022-10-23T18:49:12.501Z,17.15
2022-10-23T18:51:40.560Z,17.16
2022-10-23T18:54:11.847Z,17.17
2022-10-23T18:56:40.292Z,17.17
2022-10-23T18:59:13.261Z,17.17
2022-10-23T19:01:41.130Z,17.16
2022-10-23T19:04:11.571Z,17.20
2022-10-23T19:06:40.042Z,17.23
2022-10-23T19:09:10.984Z,17.20
2022-10-23T19:11:38.614Z,17.10
2022-10-23T19:14:06.603Z,17.06
2022-10-23T19:16:39.199Z,16.97
2022-10-23T19:19:14.112Z,16.75
2022-10-23T19:21:43.464Z,16.64
2022-10-23T19:24:17.028Z,16.56
2022-10-23T19:26:45.081Z,16.43
2022-10-23T19:29:18.074Z,16.35
2022-10-23T19:31:49.190Z,16.14
2022-10-23T19:34:19.761Z,16.00
2022-10-23T19:36:47.749Z,15.97
2022-10-23T19:39:17.439Z,16.04
2022-10-23T19:41:45.523Z,16.01
2022-10-23T19:44:14.815Z,16.01
2022-10-23T19:46:42.678Z,16.06
2022-10-23T19:49:11.228Z,16.06
2022-10-23T19:51:39.461Z,16.09
2022-10-23T19:54:07.920Z,16.09
2022-10-23T19:56:37.520Z,16.11
2022-10-23T19:59:05.768Z,16.10
2022-10-23T20:01:34.254Z,16.06
2022-10-23T20:04:02.149Z,16.09
2022-10-23T20:06:32.247Z,16.12
2022-10-23T20:09:00.052Z,16.10
2022-10-23T20:11:30.337Z,16.07
2022-10-23T20:13:59.866Z,16.06
2022-10-23T20:16:29.506Z,16.07
2022-10-23T20:18:58.133Z,16.10
2022-10-23T20:21:26.502Z,16.15
2022-10-23T20:23:54.353Z,16.20
2022-10-23T20:26:22.446Z,16.20
2022-10-23T20:28:53.755Z,16.20
2022-10-23T20:31:25.316Z,16.17
2022-10-23T20:33:53.685Z,16.11
2022-10-23T20:36:27.501Z,16.04
2022-10-23T20:38:56.112Z,15.97
2022-10-23T20:41:25.997Z,15.92
2022-10-23T20:43:55.452Z,15.89
2022-10-23T20:46:24.908Z,15.82
2022-10-23T20:48:53.459Z,15.79
2022-10-23T20:51:23.320Z,15.75
2022-10-23T20:53:53.044Z,15.68
2022-10-23T20:56:23.489Z,15.65
2022-10-23T20:58:51.692Z,15.61
2022-10-23T21:01:20.035Z,15.55
2022-10-23T21:03:52.354Z,15.53
2022-10-23T21:06:21.668Z,15.49
2022-10-23T21:08:54.927Z,15.46
2022-10-23T21:11:22.941Z,15.46
2022-10-23T21:13:51.543Z,15.45
2022-10-23T21:16:24.892Z,15.37
2022-10-23T21:18:57.404Z,15.36
2022-10-23T21:21:25.960Z,15.37
2022-10-23T21:23:56.215Z,15.37
2022-10-23T21:26:25.129Z,15.34
2022-10-23T21:29:01.157Z,15.32
2022-10-23T21:31:42.373Z,15.28
2022-10-23T21:37:07.500Z,15.21
2022-10-23T21:39:34.276Z,15.23
2022-10-23T21:42:02.148Z,15.20
2022-10-23T21:44:29.844Z,15.20
2022-10-23T21:46:57.594Z,15.20
2022-10-23T21:49:26.673Z,15.21
2022-10-23T21:51:55.110Z,15.22
2022-10-23T21:54:23.187Z,15.17
2022-10-23T21:56:53.442Z,15.13
2022-10-23T21:59:22.809Z,15.13
2022-10-23T22:01:51.548Z,15.09
2022-10-23T22:04:20.639Z,15.10
2022-10-23T22:06:50.653Z,15.14
2022-10-23T22:09:20.987Z,15.13
2022-10-23T22:11:49.584Z,15.16
2022-10-23T22:14:17.320Z,15.18
2022-10-23T22:16:45.206Z,15.20
2022-10-23T22:19:14.649Z,15.15
2022-10-23T22:21:43.127Z,15.11
2022-10-23T22:24:12.185Z,15.09
2022-10-23T22:26:42.465Z,15.04
2022-10-23T22:29:12.392Z,15.04
2022-10-23T22:31:44.234Z,15.05
2022-10-23T22:34:33.970Z,15.05
2022-10-23T22:37:06.465Z,15.03
2022-10-23T22:39:35.532Z,15.01
2022-10-23T22:42:03.269Z,15.06
2022-10-23T22:44:31.268Z,15.06
2022-10-23T22:46:58.972Z,15.09
2022-10-23T22:49:26.735Z,15.07
2022-10-23T22:51:54.459Z,15.04
2022-10-23T22:54:22.246Z,15.05
2022-10-23T22:56:51.290Z,15.03
2022-10-23T22:59:19.075Z,14.99
2022-10-23T23:01:48.380Z,15.03
2022-10-23T23:04:38.240Z,15.04
2022-10-23T23:07:06.043Z,15.07
2022-10-23T23:09:36.865Z,15.07
2022-10-23T23:12:06.184Z,15.07
2022-10-23T23:14:33.917Z,15.05
2022-10-23T23:17:01.747Z,14.99
2022-10-23T23:19:29.595Z,14.93
2022-10-23T23:21:57.775Z,14.86
2022-10-23T23:24:25.683Z,14.82
2022-10-23T23:26:53.655Z,14.77
2022-10-23T23:29:22.807Z,14.66
2022-10-23T23:31:50.637Z,14.62
2022-10-23T23:34:18.376Z,14.60
2022-10-23T23:36:46.170Z,14.58
2022-10-23T23:39:13.882Z,14.58
2022-10-23T23:41:41.588Z,14.61
2022-10-23T23:44:11.025Z,14.67
2022-10-23T23:46:40.138Z,14.70
2022-10-23T23:49:07.858Z,14.75
2022-10-23T23:51:35.571Z,14.83
2022-10-23T23:54:03.277Z,14.91
2022-10-23T23:56:31.933Z,14.97
2022-10-23T23:58:59.694Z,15.02
